Time;durP1;ratioP1;P1;durP2;ratioP2;P2;SDS_P1;SDS_P2;PMS_P1;PMS_P2;Temp;Humidity;BMP_temperature;BMP_pressure;BME280_temperature;BME280_humidity;BME280_pressure;Samples;Min_cycle;Max_cycle;Signal;HPM_P1;HPM_P2
2023/02/10 00:00:02;;;;;;;14.20;5.90;;;;;;;;;;5013415;28;20609;-74
2023/02/10 00:02:28;;;;;;;13.53;5.13;;;;;;;;;;5012088;28;20260;-74
2023/02/10 00:04:54;;;;;;;15.50;5.33;;;;;;;;;;5012636;28;20416;-73
2023/02/10 00:07:19;;;;;;;18.60;5.60;;;;;;;;;;4994151;28;20975;-74
2023/02/10 00:09:44;;;;;;;13.13;5.40;;;;;;;;;;5012170;28;20188;-74
2023/02/10 00:12:11;;;;;;;20.80;5.33;;;;;;;;;;5010544;28;20655;-74
2023/02/10 00:14:36;;;;;;;17.63;5.60;;;;;;;;;;4993546;28;20920;-74
2023/02/10 00:17:02;;;;;;;15.33;5.67;;;;;;;;;;5009176;28;20416;-74
2023/02/10 00:19:27;;;;;;;16.57;5.60;;;;;;;;;;4993752;28;20230;-73
2023/02/10 00:21:53;;;;;;;23.80;5.90;;;;;;;;;;4994848;28;20204;-74
2023/02/10 00:24:19;;;;;;;19.67;4.63;;;;;;;;;;4994982;28;20187;-74
2023/02/10 00:26:44;;;;;;;18.10;5.50;;;;;;;;;;5012733;28;20768;-74
2023/02/10 00:29:09;;;;;;;13.33;5.10;;;;;;;;;;5012085;28;20204;-74
2023/02/10 00:31:34;;;;;;;22.70;4.70;;;;;;;;;;5011783;28;20201;-74
2023/02/10 00:34:00;;;;;;;13.40;4.10;;;;;;;;;;5012396;28;20188;-74
2023/02/10 00:36:25;;;;;;;15.90;5.00;;;;;;;;;;5010906;28;20563;-74
2023/02/10 00:38:51;;;;;;;19.00;5.03;;;;;;;;;;4993955;28;20653;-73
2023/02/10 00:41:17;;;;;;;19.53;5.43;;;;;;;;;;5011825;28;20782;-73
2023/02/10 00:43:44;;;;;;;18.07;5.93;;;;;;;;;;5011315;28;20192;-74
2023/02/10 00:46:10;;;;;;;18.30;5.23;;;;;;;;;;4997546;28;20948;-75
2023/02/10 00:48:35;;;;;;;15.17;5.73;;;;;;;;;;5012520;28;20617;-74
2023/02/10 00:51:01;;;;;;;13.50;4.73;;;;;;;;;;4994117;28;20233;-74
2023/02/10 00:53:26;;;;;;;19.00;5.53;;;;;;;;;;5011678;28;20181;-74
2023/02/10 00:55:51;;;;;;;14.03;5.67;;;;;;;;;;5010857;28;20618;-74
2023/02/10 00:58:16;;;;;;;25.03;5.27;;;;;;;;;;5010575;28;20185;-74
2023/02/10 01:00:42;;;;;;;18.03;5.30;;;;;;;;;;5011331;28;20197;-74
2023/02/10 01:03:07;;;;;;;20.87;4.27;;;;;;;;;;4993414;28;20708;-74
2023/02/10 01:05:32;;;;;;;13.07;5.13;;;;;;;;;;5010458;28;20187;-74
2023/02/10 01:07:58;;;;;;;16.27;5.70;;;;;;;;;;5010496;28;20184;-74
2023/02/10 01:10:23;;;;;;;19.70;5.33;;;;;;;;;;4987302;28;20687;-74
2023/02/10 01:12:48;;;;;;;12.33;4.53;;;;;;;;;;5011213;28;20181;-74
2023/02/10 01:15:14;;;;;;;15.97;5.97;;;;;;;;;;5011704;28;20204;-74
2023/02/10 01:17:39;;;;;;;22.27;5.90;;;;;;;;;;5010385;28;20246;-74
2023/02/10 01:20:05;;;;;;;14.37;5.00;;;;;;;;;;5011278;28;20222;-74
2023/02/10 01:22:34;;;;;;;15.63;4.40;;;;;;;;;;5011282;28;20422;-73
2023/02/10 01:24:59;;;;;;;19.43;4.50;;;;;;;;;;5009414;28;20551;-74
2023/02/10 01:27:24;;;;;;;15.80;4.87;;;;;;;;;;4993224;28;20496;-74
2023/02/10 01:29:50;;;;;;;19.23;4.20;;;;;;;;;;5011009;28;20708;-74
2023/02/10 01:32:15;;;;;;;18.10;4.90;;;;;;;;;;5010287;28;20177;-74
2023/02/10 01:34:40;;;;;;;14.17;4.40;;;;;;;;;;5010110;28;20626;-74
2023/02/10 01:37:05;;;;;;;22.57;4.83;;;;;;;;;;5010241;28;20185;-74
2023/02/10 01:39:31;;;;;;;16.37;5.40;;;;;;;;;;5009956;28;20187;-74
2023/02/10 01:41:56;;;;;;;13.47;4.30;;;;;;;;;;4993260;28;20191;-74
2023/02/10 01:44:21;;;;;;;10.93;3.50;;;;;;;;;;5011188;28;20175;-74
2023/02/10 01:46:48;;;;;;;12.43;3.67;;;;;;;;;;5010148;28;20185;-73
2023/02/10 01:49:14;;;;;;;15.43;3.67;;;;;;;;;;4991152;28;20583;-74
2023/02/10 01:51:50;;;;;;;17.50;4.53;;;;;;;;;;5009679;28;20447;-74
2023/02/10 01:54:18;;;;;;;14.20;5.43;;;;;;;;;;5008879;28;20420;-74
2023/02/10 01:56:43;;;;;;;16.07;4.77;;;;;;;;;;5010099;28;20464;-73
2023/02/10 01:59:09;;;;;;;15.37;4.30;;;;;;;;;;5010533;28;20995;-73
2023/02/10 02:01:34;;;;;;;14.37;3.73;;;;;;;;;;5010883;28;20557;-74
2023/02/10 02:04:00;;;;;;;12.63;3.70;;;;;;;;;;5010513;28;20217;-73
2023/02/10 02:06:26;;;;;;;15.50;4.67;;;;;;;;;;5010447;28;20185;-73
2023/02/10 02:08:52;;;;;;;14.50;3.93;;;;;;;;;;5010166;28;20424;-73
2023/02/10 02:11:36;;;;;;;11.90;3.80;;;;;;;;;;5009135;28;20283;-73
2023/02/10 02:14:07;;;;;;;19.50;4.80;;;;;;;;;;5010554;28;20458;-73
2023/02/10 02:16:32;;;;;;;15.17;4.43;;;;;;;;;;5010258;28;20475;-73
2023/02/10 02:19:16;;;;;;;14.73;5.90;;;;;;;;;;4991808;28;20450;-73
2023/02/10 02:22:14;;;;;;;15.80;4.30;;;;;;;;;;5009831;28;20215;-73
2023/02/10 02:24:42;;;;;;;19.93;4.37;;;;;;;;;;4961230;28;20874;-73
2023/02/10 02:27:13;;;;;;;16.90;4.70;;;;;;;;;;5009566;28;20412;-73
2023/02/10 02:29:47;;;;;;;9.43;4.17;;;;;;;;;;5009596;28;20495;-73
2023/02/10 02:32:13;;;;;;;10.30;3.87;;;;;;;;;;5002145;28;20427;-73
2023/02/10 02:34:46;;;;;;;16.60;4.73;;;;;;;;;;4991829;28;20785;-73
2023/02/10 02:37:14;;;;;;;15.00;4.63;;;;;;;;;;4994075;28;20189;-71
2023/02/10 02:39:40;;;;;;;14.23;4.73;;;;;;;;;;5010214;28;20404;-73
2023/02/10 02:42:18;;;;;;;12.80;4.07;;;;;;;;;;5010444;28;20482;-73
2023/02/10 02:44:45;;;;;;;15.07;4.20;;;;;;;;;;5009716;28;20408;-73
2023/02/10 02:47:17;;;;;;;11.80;3.83;;;;;;;;;;5009135;28;20510;-73
2023/02/10 02:49:56;;;;;;;19.00;4.30;;;;;;;;;;5007506;28;20866;-73
2023/02/10 02:52:25;;;;;;;11.30;3.80;;;;;;;;;;5008339;28;20433;-73
2023/02/10 02:54:59;;;;;;;15.57;4.10;;;;;;;;;;5007835;28;20430;-73
2023/02/10 02:57:29;;;;;;;17.77;4.73;;;;;;;;;;5009269;28;20447;-73
2023/02/10 03:00:10;;;;;;;16.90;4.83;;;;;;;;;;5000930;28;20451;-73
2023/02/10 03:02:37;;;;;;;16.23;4.60;;;;;;;;;;5012366;28;20474;-73
2023/02/10 03:05:02;;;;;;;9.33;4.30;;;;;;;;;;5009873;28;20470;-73
2023/02/10 03:07:27;;;;;;;13.83;4.43;;;;;;;;;;5013031;28;20506;-73
2023/02/10 03:09:52;;;;;;;10.90;4.10;;;;;;;;;;5010093;28;20201;-73
2023/02/10 03:12:18;;;;;;;17.33;5.10;;;;;;;;;;5011862;28;20683;-73
2023/02/10 03:14:43;;;;;;;14.03;3.93;;;;;;;;;;4990339;28;20185;-73
2023/02/10 03:17:09;;;;;;;17.60;5.07;;;;;;;;;;5013873;28;20176;-73
2023/02/10 03:19:34;;;;;;;14.80;4.80;;;;;;;;;;4994194;28;20181;-73
2023/02/10 03:22:00;;;;;;;15.40;4.80;;;;;;;;;;5011871;28;20185;-73
2023/02/10 03:24:25;;;;;;;15.30;4.57;;;;;;;;;;4995672;28;20184;-73
2023/02/10 03:26:51;;;;;;;19.63;4.03;;;;;;;;;;5013360;28;20541;-73
2023/02/10 03:29:16;;;;;;;18.27;5.40;;;;;;;;;;5013370;28;20260;-74
2023/02/10 03:31:41;;;;;;;15.80;4.10;;;;;;;;;;4996055;28;20219;-73
2023/02/10 03:34:07;;;;;;;18.80;5.50;;;;;;;;;;5012654;28;20170;-75
2023/02/10 03:36:33;;;;;;;16.40;4.67;;;;;;;;;;5012065;28;20193;-73
2023/02/10 03:38:59;;;;;;;17.67;5.00;;;;;;;;;;4995085;28;20276;-73
2023/02/10 03:41:24;;;;;;;19.87;5.47;;;;;;;;;;5013288;28;20546;-73
2023/02/10 03:43:49;;;;;;;15.50;5.13;;;;;;;;;;5010113;28;20268;-73
2023/02/10 03:46:14;;;;;;;15.50;4.50;;;;;;;;;;5012225;28;20184;-73
2023/02/10 03:48:40;;;;;;;14.30;4.80;;;;;;;;;;4993651;28;20216;-74
2023/02/10 03:51:06;;;;;;;13.97;4.13;;;;;;;;;;5012226;28;20276;-73
2023/02/10 03:53:32;;;;;;;16.47;4.43;;;;;;;;;;4994317;28;20292;-73
2023/02/10 03:55:57;;;;;;;20.20;5.03;;;;;;;;;;5013385;28;21027;-73
2023/02/10 03:58:22;;;;;;;17.40;4.93;;;;;;;;;;5012577;28;20174;-73
2023/02/10 04:00:48;;;;;;;16.50;4.57;;;;;;;;;;5013463;28;20196;-73
2023/02/10 04:03:14;;;;;;;12.20;4.13;;;;;;;;;;5012977;28;20704;-73
2023/02/10 04:05:39;;;;;;;17.87;4.90;;;;;;;;;;4995875;28;20192;-73
2023/02/10 04:08:05;;;;;;;18.33;3.93;;;;;;;;;;5012303;28;20617;-73
2023/02/10 04:10:30;;;;;;;12.73;3.97;;;;;;;;;;5011027;28;20653;-73
2023/02/10 04:12:55;;;;;;;12.90;4.13;;;;;;;;;;5010022;28;20216;-73
2023/02/10 04:15:21;;;;;;;18.30;4.33;;;;;;;;;;5010004;28;20215;-73
2023/02/10 04:17:46;;;;;;;13.87;5.10;;;;;;;;;;5012603;28;20181;-73
2023/02/10 04:20:14;;;;;;;16.97;4.83;;;;;;;;;;5011474;28;20219;-73
2023/02/10 04:22:39;;;;;;;15.50;4.67;;;;;;;;;;5012330;28;20239;-73
2023/02/10 04:25:07;;;;;;;16.03;4.40;;;;;;;;;;5012386;28;20412;-73
2023/02/10 04:27:32;;;;;;;15.83;4.60;;;;;;;;;;5002759;28;20196;-73
2023/02/10 04:29:57;;;;;;;16.37;4.03;;;;;;;;;;4992563;28;20440;-73
2023/02/10 04:32:25;;;;;;;15.20;4.43;;;;;;;;;;5012338;28;20608;-73
2023/02/10 04:34:50;;;;;;;26.23;5.73;;;;;;;;;;4995639;28;20214;-74
2023/02/10 04:37:15;;;;;;;10.73;4.23;;;;;;;;;;4994086;28;20937;-73
2023/02/10 04:39:41;;;;;;;14.13;5.00;;;;;;;;;;4992389;28;20717;-74
2023/02/10 04:42:06;;;;;;;18.63;4.60;;;;;;;;;;4994707;28;20732;-73
2023/02/10 04:44:32;;;;;;;18.60;4.40;;;;;;;;;;4993200;28;20196;-73
2023/02/10 04:46:57;;;;;;;13.83;4.73;;;;;;;;;;4994209;28;20181;-73
2023/02/10 04:49:23;;;;;;;16.60;4.20;;;;;;;;;;4993450;28;20235;-73
2023/02/10 04:51:49;;;;;;;13.37;3.90;;;;;;;;;;5012264;28;20196;-73
2023/02/10 04:54:14;;;;;;;13.43;4.60;;;;;;;;;;5011060;28;20782;-73
2023/02/10 04:56:39;;;;;;;12.43;4.33;;;;;;;;;;5011406;28;20195;-73
2023/02/10 04:59:05;;;;;;;17.50;4.27;;;;;;;;;;4993960;28;20231;-73
2023/02/10 05:01:30;;;;;;;15.20;4.73;;;;;;;;;;5011532;28;20208;-73
2023/02/10 05:03:55;;;;;;;12.80;4.20;;;;;;;;;;5009978;28;20173;-73
2023/02/10 05:06:21;;;;;;;16.17;5.87;;;;;;;;;;5011297;28;20181;-73
2023/02/10 05:08:46;;;;;;;17.07;5.13;;;;;;;;;;4991081;28;20624;-73
2023/02/10 05:11:12;;;;;;;10.07;4.40;;;;;;;;;;5011133;28;20217;-73
2023/02/10 05:13:39;;;;;;;19.63;5.00;;;;;;;;;;5010625;28;20658;-73
2023/02/10 05:16:05;;;;;;;16.33;5.40;;;;;;;;;;4993529;28;20467;-73
2023/02/10 05:18:30;;;;;;;15.00;5.00;;;;;;;;;;5011035;28;20474;-73
2023/02/10 05:20:56;;;;;;;12.50;4.50;;;;;;;;;;5007683;28;20228;-73
2023/02/10 05:23:21;;;;;;;14.33;4.97;;;;;;;;;;5010887;28;20184;-73
2023/02/10 05:25:46;;;;;;;20.37;5.67;;;;;;;;;;4991985;28;20268;-73
2023/02/10 05:28:11;;;;;;;15.43;5.43;;;;;;;;;;5008810;28;20181;-73
2023/02/10 05:30:37;;;;;;;10.70;4.47;;;;;;;;;;4993090;28;20232;-73
2023/02/10 05:33:02;;;;;;;10.30;4.30;;;;;;;;;;5011612;28;20174;-73
2023/02/10 05:35:27;;;;;;;16.40;4.73;;;;;;;;;;5010035;28;20196;-73
2023/02/10 05:37:53;;;;;;;18.67;5.20;;;;;;;;;;4993408;28;20173;-73
2023/02/10 05:40:18;;;;;;;13.20;4.60;;;;;;;;;;5011123;28;20196;-73
2023/02/10 05:42:43;;;;;;;18.60;8.50;;;;;;;;;;5011015;28;20177;-73
2023/02/10 05:45:08;;;;;;;15.70;5.87;;;;;;;;;;5010987;28;20669;-73
2023/02/10 05:47:34;;;;;;;13.63;4.90;;;;;;;;;;5009763;28;20654;-73
2023/02/10 05:49:59;;;;;;;10.67;4.63;;;;;;;;;;5009733;28;20285;-73
2023/02/10 05:52:24;;;;;;;11.70;5.50;;;;;;;;;;4988119;28;20242;-73
2023/02/10 05:54:50;;;;;;;16.70;5.57;;;;;;;;;;5008586;28;20180;-73
2023/02/10 05:57:15;;;;;;;14.97;4.93;;;;;;;;;;5010358;28;20256;-73
2023/02/10 05:59:41;;;;;;;15.50;5.17;;;;;;;;;;5010469;28;20177;-73
2023/02/10 06:02:06;;;;;;;10.40;4.10;;;;;;;;;;4991907;28;20184;-74
2023/02/10 06:04:31;;;;;;;17.17;5.50;;;;;;;;;;5010313;28;20405;-73
2023/02/10 06:06:57;;;;;;;12.77;5.00;;;;;;;;;;4992256;28;20538;-73
2023/02/10 06:09:22;;;;;;;13.00;4.80;;;;;;;;;;5009680;28;20192;-73
2023/02/10 06:11:49;;;;;;;12.60;5.07;;;;;;;;;;4993089;28;20223;-73
2023/02/10 06:14:14;;;;;;;14.80;4.70;;;;;;;;;;4992743;28;20185;-73
2023/02/10 06:16:40;;;;;;;12.37;5.37;;;;;;;;;;5009431;28;20451;-73
2023/02/10 06:19:05;;;;;;;16.93;5.20;;;;;;;;;;5009525;28;20610;-74
2023/02/10 06:21:30;;;;;;;9.90;5.43;;;;;;;;;;4995257;28;20503;-73
2023/02/10 06:23:56;;;;;;;15.30;5.07;;;;;;;;;;5008331;28;20244;-73
2023/02/10 06:26:21;;;;;;;12.90;5.23;;;;;;;;;;5010142;28;20184;-73
2023/02/10 06:28:46;;;;;;;19.83;4.60;;;;;;;;;;5010087;28;20187;-73
2023/02/10 06:31:12;;;;;;;10.20;5.40;;;;;;;;;;5009135;28;20712;-73
2023/02/10 06:33:37;;;;;;;14.27;5.20;;;;;;;;;;4990097;28;20219;-73
2023/02/10 06:36:05;;;;;;;13.27;4.67;;;;;;;;;;5008603;28;20224;-73
2023/02/10 06:38:30;;;;;;;19.00;6.10;;;;;;;;;;4990957;28;20191;-73
2023/02/10 06:40:56;;;;;;;18.47;7.10;;;;;;;;;;5009158;28;20715;-73
2023/02/10 06:43:21;;;;;;;19.63;6.10;;;;;;;;;;5010029;28;20177;-73
2023/02/10 06:45:46;;;;;;;15.63;6.13;;;;;;;;;;4991428;28;20311;-73
2023/02/10 06:48:13;;;;;;;15.23;5.50;;;;;;;;;;4989452;28;20674;-73
2023/02/10 06:50:39;;;;;;;11.60;5.33;;;;;;;;;;4972673;28;20456;-73
2023/02/10 06:53:04;;;;;;;16.00;5.73;;;;;;;;;;4967647;28;20626;-73
2023/02/10 06:55:29;;;;;;;13.87;7.00;;;;;;;;;;4970648;28;20501;-73
2023/02/10 06:57:57;;;;;;;12.30;5.00;;;;;;;;;;4988305;28;20192;-73
2023/02/10 07:00:23;;;;;;;16.07;5.20;;;;;;;;;;4985870;28;20202;-73
2023/02/10 07:02:48;;;;;;;12.30;5.50;;;;;;;;;;4988309;28;20761;-73
2023/02/10 07:05:13;;;;;;;11.07;4.93;;;;;;;;;;4987771;28;20642;-73
2023/02/10 07:07:39;;;;;;;15.40;5.23;;;;;;;;;;4971284;28;20185;-73
2023/02/10 07:10:04;;;;;;;14.33;5.80;;;;;;;;;;4971426;28;20229;-73
2023/02/10 07:12:30;;;;;;;11.83;5.53;;;;;;;;;;4989139;28;20185;-73
2023/02/10 07:14:55;;;;;;;10.10;5.10;;;;;;;;;;4989247;28;20190;-73
2023/02/10 07:17:20;;;;;;;12.37;5.90;;;;;;;;;;4989233;28;20177;-73
2023/02/10 07:19:46;;;;;;;14.43;6.10;;;;;;;;;;4989478;28;20171;-73
2023/02/10 07:22:11;;;;;;;16.27;5.63;;;;;;;;;;4972385;28;20185;-73
2023/02/10 07:24:37;;;;;;;18.97;5.80;;;;;;;;;;4989175;28;20639;-73
2023/02/10 07:27:02;;;;;;;12.20;5.47;;;;;;;;;;4972231;28;20221;-73
2023/02/10 07:29:28;;;;;;;13.10;5.47;;;;;;;;;;4987459;28;20260;-73
2023/02/10 07:31:57;;;;;;;15.70;6.10;;;;;;;;;;4992565;23;20281;-76
2023/02/10 07:34:29;;;;;;;15.30;6.00;;;;;;;;;;4986418;28;20276;-77
2023/02/10 07:36:59;;;;;;;14.30;5.57;;;;;;;;;;4970569;28;20549;-78
2023/02/10 07:39:29;;;;;;;16.67;6.77;;;;;;;;;;4969532;28;20417;-78
2023/02/10 07:41:57;;;;;;;13.77;6.37;;;;;;;;;;4969986;28;20730;-78
2023/02/10 07:44:27;;;;;;;20.23;7.07;;;;;;;;;;4988097;28;20495;-78
2023/02/10 07:46:55;;;;;;;10.77;5.90;;;;;;;;;;4987004;28;20452;-78
2023/02/10 07:49:24;;;;;;;19.37;6.37;;;;;;;;;;4972699;28;20424;-77
2023/02/10 07:51:52;;;;;;;16.50;6.03;;;;;;;;;;4991677;28;20449;-78
2023/02/10 07:54:23;;;;;;;14.83;6.00;;;;;;;;;;4975453;28;20864;-78
2023/02/10 07:56:53;;;;;;;18.57;6.77;;;;;;;;;;4994534;28;20472;-78
2023/02/10 07:59:23;;;;;;;15.67;5.70;;;;;;;;;;4989873;28;20475;-77
2023/02/10 08:01:54;;;;;;;15.57;6.73;;;;;;;;;;4976590;28;20490;-78
2023/02/10 08:04:24;;;;;;;17.47;7.60;;;;;;;;;;4991874;28;20444;-78
2023/02/10 08:06:53;;;;;;;18.07;8.10;;;;;;;;;;4993476;28;20413;-78
2023/02/10 08:09:23;;;;;;;14.23;6.33;;;;;;;;;;4994299;28;20528;-78
2023/02/10 08:11:53;;;;;;;20.80;6.83;;;;;;;;;;4994402;28;20464;-78
2023/02/10 08:14:21;;;;;;;17.00;6.87;;;;;;;;;;4976415;28;20464;-78
2023/02/10 08:16:49;;;;;;;16.93;7.10;;;;;;;;;;4993386;28;20460;-77
2023/02/10 08:19:17;;;;;;;20.03;7.17;;;;;;;;;;4993053;28;20501;-77
2023/02/10 08:21:45;;;;;;;14.03;6.60;;;;;;;;;;4994318;28;20433;-78
2023/02/10 08:24:10;;;;;;;17.17;7.33;;;;;;;;;;4993959;28;20970;-77
2023/02/10 08:26:40;;;;;;;20.60;5.90;;;;;;;;;;4994319;28;20417;-77
2023/02/10 08:29:08;;;;;;;16.90;6.90;;;;;;;;;;4991575;28;20185;-78
2023/02/10 08:31:36;;;;;;;23.23;7.63;;;;;;;;;;4991910;28;20548;-78
2023/02/10 08:34:05;;;;;;;14.50;7.20;;;;;;;;;;4993073;28;20508;-78
2023/02/10 08:36:32;;;;;;;14.17;7.13;;;;;;;;;;4991799;28;20456;-78
2023/02/10 08:38:58;;;;;;;16.63;7.20;;;;;;;;;;4992346;28;20416;-78
2023/02/10 08:41:25;;;;;;;14.00;6.97;;;;;;;;;;4992372;28;20441;-78
2023/02/10 08:43:55;;;;;;;22.97;7.67;;;;;;;;;;4992263;28;20174;-78
2023/02/10 08:46:20;;;;;;;16.33;7.20;;;;;;;;;;4991786;28;20546;-78
2023/02/10 08:48:48;;;;;;;23.70;7.30;;;;;;;;;;4991951;28;20421;-77
2023/02/10 08:51:16;;;;;;;15.57;6.90;;;;;;;;;;4991537;28;20208;-78
2023/02/10 08:53:41;;;;;;;13.40;6.27;;;;;;;;;;4991862;28;20507;-77
2023/02/10 08:56:11;;;;;;;14.93;6.40;;;;;;;;;;4992145;28;20588;-77
2023/02/10 08:58:40;;;;;;;18.57;7.80;;;;;;;;;;4991808;28;20174;-78
2023/02/10 09:01:16;;;;;;;19.83;7.40;;;;;;;;;;4991917;28;20444;-77
2023/02/10 09:03:47;;;;;;;17.47;7.37;;;;;;;;;;4992241;28;20420;-78
2023/02/10 09:06:16;;;;;;;17.97;7.30;;;;;;;;;;4991765;28;20972;-78
2023/02/10 09:08:47;;;;;;;15.97;7.57;;;;;;;;;;4991308;28;20472;-77
2023/02/10 09:11:14;;;;;;;15.70;8.20;;;;;;;;;;4990386;28;20452;-77
2023/02/10 09:13:43;;;;;;;20.33;7.63;;;;;;;;;;4974523;28;20992;-77
2023/02/10 09:16:11;;;;;;;16.67;7.50;;;;;;;;;;4991830;28;20459;-78
2023/02/10 09:18:41;;;;;;;18.50;7.57;;;;;;;;;;4990858;28;20416;-78
2023/02/10 09:21:06;;;;;;;26.37;7.43;;;;;;;;;;4990920;28;20945;-78
2023/02/10 09:23:34;;;;;;;16.73;7.23;;;;;;;;;;4991652;28;20452;-78
2023/02/10 09:26:02;;;;;;;15.37;7.53;;;;;;;;;;4991339;28;20208;-77
2023/02/10 09:28:27;;;;;;;14.50;7.60;;;;;;;;;;4991115;28;20421;-78
2023/02/10 09:31:01;;;;;;;20.53;7.43;;;;;;;;;;4990331;28;20471;-77
2023/02/10 09:33:26;;;;;;;26.37;8.33;;;;;;;;;;4971906;28;20208;-78
2023/02/10 09:35:54;;;;;;;14.20;7.83;;;;;;;;;;4991055;28;20977;-78
2023/02/10 09:38:21;;;;;;;19.77;7.30;;;;;;;;;;4991541;28;20181;-77
2023/02/10 09:41:06;;;;;;;16.70;7.20;;;;;;;;;;4989839;28;20433;-77
2023/02/10 09:43:41;;;;;;;19.43;8.43;;;;;;;;;;4991224;28;20440;-77
2023/02/10 09:46:18;;;;;;;20.07;7.13;;;;;;;;;;4992920;28;20504;-77
2023/02/10 09:48:58;;;;;;;16.50;7.47;;;;;;;;;;4992443;28;20451;-78
2023/02/10 09:51:37;;;;;;;23.27;7.83;;;;;;;;;;4993464;28;20440;-78
2023/02/10 09:54:09;;;;;;;18.43;7.30;;;;;;;;;;4992508;28;20409;-78
2023/02/10 09:56:37;;;;;;;19.77;8.70;;;;;;;;;;4992597;28;20460;-77
2023/02/10 09:59:07;;;;;;;18.90;7.47;;;;;;;;;;4991213;28;20882;-78
2023/02/10 10:01:39;;;;;;;20.40;7.83;;;;;;;;;;4990239;28;20435;-77
2023/02/10 10:04:10;;;;;;;18.77;7.50;;;;;;;;;;4991505;28;21066;-77
2023/02/10 10:06:44;;;;;;;15.20;7.87;;;;;;;;;;4989478;28;20941;-77
2023/02/10 10:09:10;;;;;;;22.97;7.90;;;;;;;;;;4990773;28;20460;-78
2023/02/10 10:11:41;;;;;;;17.70;8.47;;;;;;;;;;4989022;28;20842;-77
2023/02/10 10:14:25;;;;;;;25.53;8.10;;;;;;;;;;4990084;28;20184;-78
2023/02/10 10:17:03;;;;;;;18.17;8.07;;;;;;;;;;4971867;28;20492;-77
2023/02/10 10:19:36;;;;;;;22.00;7.70;;;;;;;;;;4989784;28;20499;-77
2023/02/10 10:22:10;;;;;;;13.60;6.97;;;;;;;;;;4990356;28;20475;-77
2023/02/10 10:24:41;;;;;;;18.90;8.20;;;;;;;;;;4989586;28;20937;-77
2023/02/10 10:27:06;;;;;;;20.37;8.77;;;;;;;;;;4989931;28;20444;-78
2023/02/10 10:29:39;;;;;;;29.10;7.90;;;;;;;;;;4989419;28;20448;-78
2023/02/10 10:32:16;;;;;;;10.90;7.67;;;;;;;;;;4990661;28;20304;-77
2023/02/10 10:34:45;;;;;;;27.00;7.97;;;;;;;;;;4989355;28;20428;-78
2023/02/10 10:37:16;;;;;;;15.23;8.13;;;;;;;;;;4990632;28;20551;-78
2023/02/10 10:39:45;;;;;;;24.57;9.30;;;;;;;;;;4988250;28;20985;-78
2023/02/10 10:42:25;;;;;;;18.47;8.40;;;;;;;;;;4990520;28;20736;-78
2023/02/10 10:44:52;;;;;;;19.73;8.27;;;;;;;;;;4991026;28;20527;-78
2023/02/10 10:47:20;;;;;;;16.23;7.37;;;;;;;;;;4989450;28;20427;-77
2023/02/10 10:49:45;;;;;;;20.03;8.80;;;;;;;;;;4989587;28;20417;-77
2023/02/10 10:52:19;;;;;;;16.57;8.30;;;;;;;;;;4989773;28;20456;-77
2023/02/10 10:54:47;;;;;;;16.93;8.50;;;;;;;;;;4989603;28;20260;-77
2023/02/10 10:57:16;;;;;;;16.37;8.87;;;;;;;;;;4989664;28;20557;-77
2023/02/10 11:00:17;;;;;;;14.90;8.60;;;;;;;;;;4989757;28;20508;-77
2023/02/10 11:02:53;;;;;;;19.70;7.83;;;;;;;;;;4891760;29;20436;-77
2023/02/10 11:05:21;;;;;;;18.30;8.53;;;;;;;;;;4974052;28;20420;-77
2023/02/10 11:07:51;;;;;;;17.33;7.73;;;;;;;;;;4989436;28;20416;-77
2023/02/10 11:10:21;;;;;;;19.37;8.27;;;;;;;;;;4974816;28;20503;-77
2023/02/10 11:12:47;;;;;;;18.57;8.07;;;;;;;;;;4990720;28;20431;-77
2023/02/10 11:15:35;;;;;;;22.00;8.60;;;;;;;;;;4988632;28;20898;-78
2023/02/10 11:18:01;;;;;;;17.93;8.00;;;;;;;;;;4977157;28;20425;-78
2023/02/10 11:20:29;;;;;;;24.87;8.33;;;;;;;;;;4991426;28;20484;-77
2023/02/10 11:23:11;;;;;;;26.43;8.70;;;;;;;;;;4991150;28;20424;-77
2023/02/10 11:25:36;;;;;;;23.23;8.80;;;;;;;;;;4994911;28;20420;-78
2023/02/10 11:28:03;;;;;;;19.80;8.87;;;;;;;;;;4994725;28;20421;-78
2023/02/10 11:30:33;;;;;;;25.67;8.20;;;;;;;;;;4995171;28;20220;-78
2023/02/10 11:32:59;;;;;;;22.17;8.10;;;;;;;;;;4993802;28;20408;-78
2023/02/10 11:35:25;;;;;;;25.43;9.37;;;;;;;;;;4992424;28;20959;-78
2023/02/10 11:37:52;;;;;;;22.43;9.20;;;;;;;;;;4994569;28;20421;-79
2023/02/10 11:40:18;;;;;;;26.10;9.50;;;;;;;;;;4995297;28;20204;-78
2023/02/10 11:42:48;;;;;;;20.60;9.70;;;;;;;;;;4995262;28;20841;-79
2023/02/10 11:45:26;;;;;;;18.17;8.63;;;;;;;;;;4991924;28;20409;-79
2023/02/10 11:48:10;;;;;;;20.67;8.70;;;;;;;;;;4993521;28;20488;-78
2023/02/10 11:50:38;;;;;;;25.33;9.53;;;;;;;;;;4992183;28;20469;-78
2023/02/10 11:53:04;;;;;;;17.47;8.60;;;;;;;;;;4994764;28;20420;-78
2023/02/10 11:55:40;;;;;;;22.33;8.27;;;;;;;;;;4991817;28;20891;-77
2023/02/10 12:01:08;;;;;;;25.27;8.30;;;;;;;;;;4994011;28;20424;-79
2023/02/10 12:03:39;;;;;;;16.20;8.10;;;;;;;;;;4993485;28;20492;-79
2023/02/10 12:06:08;;;;;;;14.97;8.63;;;;;;;;;;4994130;28;20431;-78
2023/02/10 12:08:40;;;;;;;17.43;8.20;;;;;;;;;;4976045;28;20435;-79
2023/02/10 12:11:05;;;;;;;18.27;8.37;;;;;;;;;;4993561;28;20437;-79
2023/02/10 12:13:31;;;;;;;25.77;8.60;;;;;;;;;;4994693;28;20424;-79
2023/02/10 12:16:09;;;;;;;16.90;8.07;;;;;;;;;;4994082;28;20295;-79
2023/02/10 12:18:50;;;;;;;20.53;7.60;;;;;;;;;;4994155;28;20184;-79
2023/02/10 12:21:34;;;;;;;15.53;7.20;;;;;;;;;;4994245;28;20495;-78
2023/02/10 12:24:18;;;;;;;15.30;6.87;;;;;;;;;;4976584;28;20416;-79
2023/02/10 12:26:46;;;;;;;18.53;8.20;;;;;;;;;;4993873;28;20412;-79
2023/02/10 12:29:25;;;;;;;18.53;7.50;;;;;;;;;;4993667;28;20417;-79
2023/02/10 12:32:00;;;;;;;15.53;6.90;;;;;;;;;;4994224;28;20444;-79
2023/02/10 12:34:31;;;;;;;15.93;6.87;;;;;;;;;;4993450;28;20417;-79
2023/02/10 12:37:15;;;;;;;20.73;7.50;;;;;;;;;;4993946;28;20484;-79
2023/02/10 12:39:43;;;;;;;18.70;7.90;;;;;;;;;;4993658;28;20413;-80
2023/02/10 12:42:27;;;;;;;20.73;6.97;;;;;;;;;;4993388;28;20425;-78
2023/02/10 12:44:58;;;;;;;16.77;6.80;;;;;;;;;;4993510;28;20416;-79
2023/02/10 12:47:23;;;;;;;15.33;6.93;;;;;;;;;;4993601;28;20409;-79
2023/02/10 12:49:59;;;;;;;20.17;6.90;;;;;;;;;;4993762;28;20789;-79
2023/02/10 12:52:31;;;;;;;18.13;7.13;;;;;;;;;;4994006;28;20208;-79
2023/02/10 12:55:13;;;;;;;18.87;7.40;;;;;;;;;;4994683;28;20439;-79
2023/02/10 12:57:41;;;;;;;16.27;7.57;;;;;;;;;;4993075;28;20796;-79
2023/02/10 13:00:06;;;;;;;19.30;7.70;;;;;;;;;;4994364;28;20415;-80
2023/02/10 13:02:54;;;;;;;18.00;7.40;;;;;;;;;;4993098;28;20409;-79
2023/02/10 13:05:21;;;;;;;15.80;6.30;;;;;;;;;;4993467;28;20170;-79
2023/02/10 13:08:05;;;;;;;19.60;6.90;;;;;;;;;;4991738;28;20408;-80
2023/02/10 13:10:33;;;;;;;13.77;5.77;;;;;;;;;;4989128;28;20817;-80
2023/02/10 13:13:01;;;;;;;16.83;5.73;;;;;;;;;;4991697;28;20902;-80
2023/02/10 13:15:32;;;;;;;8.90;4.67;;;;;;;;;;4989921;28;20536;-79
2023/02/10 13:17:58;;;;;;;14.83;6.57;;;;;;;;;;4989360;28;20421;-80
2023/02/10 13:20:23;;;;;;;10.40;5.30;;;;;;;;;;4991455;28;20417;-80
2023/02/10 13:23:00;;;;;;;20.17;5.43;;;;;;;;;;4974829;28;20170;-79
2023/02/10 13:25:25;;;;;;;11.43;4.90;;;;;;;;;;4991062;28;20181;-80
2023/02/10 13:28:14;;;;;;;14.33;4.90;;;;;;;;;;4991723;28;20575;-80
2023/02/10 13:30:42;;;;;;;16.17;5.73;;;;;;;;;;4990702;28;20293;-80
2023/02/10 13:33:10;;;;;;;12.00;5.00;;;;;;;;;;4991310;28;20496;-80
2023/02/10 13:35:36;;;;;;;12.33;4.10;;;;;;;;;;4992650;28;20449;-80
2023/02/10 13:38:06;;;;;;;16.63;4.80;;;;;;;;;;4974029;28;20934;-80
2023/02/10 13:40:46;;;;;;;13.90;4.53;;;;;;;;;;4990923;28;20962;-80
2023/02/10 13:43:20;;;;;;;13.57;4.10;;;;;;;;;;4992019;28;20865;-80
2023/02/10 13:45:49;;;;;;;11.43;4.17;;;;;;;;;;4990125;28;20475;-80
2023/02/10 13:48:27;;;;;;;14.10;4.30;;;;;;;;;;4990430;28;20412;-79
2023/02/10 13:50:54;;;;;;;13.83;4.00;;;;;;;;;;4991113;28;20420;-80
2023/02/10 13:53:34;;;;;;;16.03;4.57;;;;;;;;;;4972172;28;20784;-80
2023/02/10 13:56:02;;;;;;;10.53;3.30;;;;;;;;;;4990887;28;21055;-80
2023/02/10 13:58:31;;;;;;;11.10;3.67;;;;;;;;;;4991017;28;20452;-79
2023/02/10 14:00:56;;;;;;;13.83;3.73;;;;;;;;;;4990748;28;20452;-80
2023/02/10 14:03:30;;;;;;;16.83;3.60;;;;;;;;;;4971616;28;20923;-80
2023/02/10 14:06:03;;;;;;;16.80;3.10;;;;;;;;;;4989728;28;20260;-80
2023/02/10 14:08:42;;;;;;;10.33;2.90;;;;;;;;;;4988722;28;20422;-81
2023/02/10 14:11:13;;;;;;;10.40;3.03;;;;;;;;;;4973103;28;20474;-80
2023/02/10 14:13:40;;;;;;;9.97;3.07;;;;;;;;;;4986448;28;20487;-80
2023/02/10 14:16:07;;;;;;;14.80;3.90;;;;;;;;;;4972743;28;20465;-81
2023/02/10 14:18:37;;;;;;;15.20;4.93;;;;;;;;;;4990279;28;20437;-81
2023/02/10 14:21:05;;;;;;;12.93;3.20;;;;;;;;;;4989771;28;20428;-80
2023/02/10 14:23:33;;;;;;;12.47;3.90;;;;;;;;;;4989287;28;20435;-80
2023/02/10 14:26:00;;;;;;;9.57;3.10;;;;;;;;;;4972858;28;20428;-80
2023/02/10 14:28:27;;;;;;;11.10;3.07;;;;;;;;;;4990452;28;20444;-80
2023/02/10 14:31:05;;;;;;;14.17;3.70;;;;;;;;;;4990749;28;20459;-81
2023/02/10 14:33:32;;;;;;;11.77;3.30;;;;;;;;;;4990090;28;20409;-81
2023/02/10 14:35:59;;;;;;;12.67;3.80;;;;;;;;;;4972771;28;20969;-81
2023/02/10 14:38:27;;;;;;;13.50;4.47;;;;;;;;;;4989864;28;20417;-80
2023/02/10 14:40:53;;;;;;;10.67;3.80;;;;;;;;;;4990443;28;20440;-80